aviador You're here:

KHAF Decoded Metar

HALF MOON BAY in CA, USA
Report Time2018-04-24 14:00:00
UTC Time2018-04-24 14:17:48
Flight Rules ifr IFR
WindCalm
Visibility6437 m
Phenomena:Mist
Clouds:Overcast 008 Hf
Expected CloudBase > 400 ft AGL from Temp-Dew spread
Ceiling800 ft
Temp10°C (ISA -5)
Dew Point09°C (94% RH)
AAT9.8°C
QNH1017 hPa
Density Alt-499 ft
Elevation66 ft
Report Wrong Elevation
Raw Report
KHAF 241400Z AUTO 00000KT 4SM BR OVC008 10/09 A3002 RMK AO2=

Extra information for KHAF:More info

Metar Taf Metar & Taf Last 4 Metars F.Rules Stats Wind Profile Meteogram Temp Stats Airport Information Weather charts Add Link Nearby VenuesMetar ALERT Operation Metar Decoded Social comments

AIRNAV info for KHAF